Time;durP1;ratioP1;P1;durP2;ratioP2;P2;SDS_P1;SDS_P2;PMS_P1;PMS_P2;Temp;Humidity;BMP_temperature;BMP_pressure;BME280_temperature;BME280_humidity;BME280_pressure;Samples;Min_cycle;Max_cycle;Signal;HPM_P1;HPM_P2
2024/01/22 00:01:11;;;;;;;33.92;21.35;;;3.60;99.90;;;;;;4969526;28;20038;-75
2024/01/22 00:03:38;;;;;;;33.55;21.60;;;3.60;99.90;;;;;;4967604;28;20116;-73
2024/01/22 00:06:05;;;;;;;39.30;24.50;;;3.60;99.90;;;;;;4954546;28;20034;-73
2024/01/22 00:08:32;;;;;;;38.85;23.00;;;3.60;99.90;;;;;;4970747;28;20611;-75
2024/01/22 00:10:59;;;;;;;33.88;20.80;;;3.60;99.90;;;;;;4972943;28;20457;-73
2024/01/22 00:13:25;;;;;;;37.28;22.52;;;3.60;99.90;;;;;;4968736;28;20053;-73
2024/01/22 00:15:52;;;;;;;29.52;22.20;;;3.60;99.90;;;;;;4968786;28;20046;-74
2024/01/22 00:18:19;;;;;;;35.58;21.27;;;3.60;99.90;;;;;;4968224;28;20549;-73
2024/01/22 00:20:46;;;;;;;36.10;21.40;;;3.60;99.90;;;;;;4969851;28;20113;-74
2024/01/22 00:23:13;;;;;;;32.08;20.77;;;3.60;99.90;;;;;;4968556;28;20054;-74
2024/01/22 00:25:39;;;;;;;28.65;21.05;;;3.60;99.90;;;;;;4990784;28;20128;-74
2024/01/22 00:28:07;;;;;;;34.50;20.73;;;3.70;99.90;;;;;;4971982;28;20053;-75
2024/01/22 00:30:34;;;;;;;28.92;20.50;;;3.70;99.90;;;;;;4969905;28;20524;-76
2024/01/22 00:33:01;;;;;;;32.20;21.00;;;3.70;99.90;;;;;;4971198;28;20034;-72
2024/01/22 00:35:28;;;;;;;29.92;21.13;;;3.80;99.90;;;;;;4968866;28;20054;-73
2024/01/22 00:37:55;;;;;;;33.40;21.15;;;3.90;99.90;;;;;;4973286;28;20042;-77
2024/01/22 00:40:22;;;;;;;33.55;22.63;;;3.90;99.90;;;;;;4971358;28;20042;-76
2024/01/22 00:42:48;;;;;;;36.67;21.98;;;3.90;99.90;;;;;;4971185;28;20034;-76
2024/01/22 00:45:15;;;;;;;35.75;24.10;;;3.80;99.90;;;;;;4965272;28;21428;-74
2024/01/22 00:47:42;;;;;;;33.88;21.60;;;3.80;99.90;;;;;;4977306;28;20038;-73
2024/01/22 00:50:10;;;;;;;37.25;22.98;;;3.70;99.90;;;;;;4977369;28;20038;-75
2024/01/22 00:52:37;;;;;;;38.85;23.27;;;3.70;99.90;;;;;;4967433;28;20047;-76
2024/01/22 00:55:04;;;;;;;39.80;23.00;;;3.70;99.90;;;;;;4983623;28;20509;-76
2024/01/22 00:57:31;;;;;;;38.63;22.70;;;3.80;99.90;;;;;;4975154;28;20046;-76
2024/01/22 00:59:57;;;;;;;40.40;22.45;;;3.80;99.90;;;;;;4976545;28;20116;-75
2024/01/22 01:02:25;;;;;;;30.67;21.83;;;3.80;99.90;;;;;;4964354;28;20038;-75
2024/01/22 01:04:52;;;;;;;35.15;22.17;;;3.80;99.90;;;;;;4973220;28;20470;-73
2024/01/22 01:07:19;;;;;;;31.13;20.77;;;3.80;99.90;;;;;;4973860;28;20557;-76
2024/01/22 01:09:46;;;;;;;35.88;20.60;;;3.80;99.90;;;;;;4977981;28;20718;-76
2024/01/22 01:12:13;;;;;;;35.72;21.13;;;3.80;99.90;;;;;;4980182;28;20055;-76
2024/01/22 01:14:40;;;;;;;32.47;21.27;;;3.80;99.90;;;;;;4976737;28;20042;-76
2024/01/22 01:17:07;;;;;;;28.98;19.77;;;3.90;99.90;;;;;;4975630;28;20048;-76
2024/01/22 01:19:35;;;;;;;30.45;19.70;;;3.90;99.90;;;;;;4970579;28;20757;-74
2024/01/22 01:22:02;;;;;;;29.25;19.65;;;3.80;99.90;;;;;;4975645;28;20066;-76
2024/01/22 01:24:29;;;;;;;32.08;18.65;;;3.80;99.90;;;;;;4968324;28;20490;-76
2024/01/22 01:26:56;;;;;;;30.20;20.45;;;3.80;99.90;;;;;;4976201;28;20061;-76
2024/01/22 01:29:23;;;;;;;29.17;17.90;;;3.80;99.90;;;;;;4977023;28;20042;-75
2024/01/22 01:31:49;;;;;;;29.85;20.55;;;3.80;99.90;;;;;;4964936;28;20043;-76
2024/01/22 01:34:16;;;;;;;29.35;20.80;;;3.90;99.90;;;;;;4972905;28;20043;-75
2024/01/22 01:36:44;;;;;;;28.00;19.38;;;3.90;99.90;;;;;;4986110;28;20121;-77
2024/01/22 01:39:12;;;;;;;31.65;19.58;;;3.90;99.90;;;;;;4994842;28;20076;-77
2024/01/22 01:41:39;;;;;;;32.17;20.42;;;3.90;99.90;;;;;;4960276;28;20142;-76
2024/01/22 01:44:06;;;;;;;29.45;18.92;;;3.90;99.90;;;;;;4953794;28;20054;-75
2024/01/22 01:46:33;;;;;;;34.60;18.33;;;3.90;99.90;;;;;;4957547;28;20069;-74
2024/01/22 01:49:00;;;;;;;26.85;18.65;;;4.00;99.90;;;;;;4964540;28;20061;-72
2024/01/22 01:51:28;;;;;;;24.98;16.48;;;4.00;99.90;;;;;;4970401;28;20757;-73
2024/01/22 01:53:56;;;;;;;22.95;15.52;;;4.10;99.90;;;;;;4974639;28;20057;-74
2024/01/22 01:56:23;;;;;;;22.38;16.65;;;4.20;99.90;;;;;;4954765;28;20081;-74
2024/01/22 01:58:50;;;;;;;21.77;15.75;;;4.20;99.90;;;;;;4975851;28;20053;-76
2024/01/22 02:01:17;;;;;;;19.58;13.73;;;4.30;99.90;;;;;;4967770;28;20054;-76
2024/01/22 02:03:45;;;;;;;23.02;15.13;;;4.30;99.90;;;;;;4976211;28;20051;-77
2024/01/22 02:06:12;;;;;;;20.70;14.43;;;4.40;99.90;;;;;;4975050;28;20053;-74
2024/01/22 02:08:39;;;;;;;21.92;14.38;;;4.40;99.90;;;;;;4974923;28;20163;-75
2024/01/22 02:11:07;;;;;;;21.00;15.80;;;4.40;99.90;;;;;;4973719;28;20091;-74
2024/01/22 02:13:33;;;;;;;23.70;13.52;;;4.40;99.90;;;;;;4971457;28;20178;-75
2024/01/22 02:16:00;;;;;;;16.10;12.50;;;4.50;99.90;;;;;;4972795;28;20046;-74
2024/01/22 02:18:27;;;;;;;16.98;12.05;;;4.50;99.90;;;;;;4985764;28;20125;-75
2024/01/22 02:20:54;;;;;;;12.90;11.60;;;4.50;99.90;;;;;;4974863;28;20081;-75
2024/01/22 02:23:21;;;;;;;13.65;10.27;;;4.60;99.90;;;;;;4979377;28;20069;-75
2024/01/22 02:25:47;;;;;;;14.23;11.50;;;4.80;99.90;;;;;;4972590;28;20050;-76
2024/01/22 02:28:14;;;;;;;12.52;11.32;;;5.00;99.90;;;;;;4975147;28;20120;-75
2024/01/22 02:30:41;;;;;;;17.52;11.52;;;5.00;99.90;;;;;;4984925;28;20054;-75
2024/01/22 02:33:08;;;;;;;14.43;11.27;;;5.10;99.90;;;;;;4972972;28;20383;-75
2024/01/22 02:35:35;;;;;;;12.55;11.43;;;5.20;99.90;;;;;;4964925;28;20046;-76
2024/01/22 02:38:02;;;;;;;14.40;11.88;;;5.20;99.90;;;;;;4954087;28;20456;-75
2024/01/22 02:40:28;;;;;;;13.18;11.35;;;5.20;99.90;;;;;;4951001;28;20243;-76
2024/01/22 02:42:55;;;;;;;13.00;11.52;;;5.30;99.90;;;;;;4973920;28;20050;-76
2024/01/22 02:45:22;;;;;;;11.50;10.45;;;5.40;99.90;;;;;;4966173;28;20054;-75
2024/01/22 02:47:49;;;;;;;10.93;9.90;;;5.40;99.90;;;;;;4976615;28;20042;-76
2024/01/22 02:50:16;;;;;;;11.60;10.50;;;5.50;99.90;;;;;;4989413;28;20034;-76
2024/01/22 02:52:42;;;;;;;12.68;11.40;;;5.60;99.90;;;;;;4981577;28;20966;-78
2024/01/22 02:55:09;;;;;;;13.43;11.27;;;5.70;99.90;;;;;;4959473;28;20054;-76
2024/01/22 02:57:36;;;;;;;12.27;11.05;;;5.70;99.90;;;;;;4974383;28;20046;-77
2024/01/22 03:00:05;;;;;;;11.98;10.98;;;5.70;99.90;;;;;;4977116;28;20042;-78
2024/01/22 03:02:31;;;;;;;12.90;11.68;;;5.80;99.90;;;;;;4956398;28;20201;-78
2024/01/22 03:04:58;;;;;;;13.32;11.48;;;5.70;99.90;;;;;;4953534;28;20613;-79
2024/01/22 03:07:25;;;;;;;13.07;11.95;;;5.70;99.90;;;;;;4968142;28;20651;-76
2024/01/22 03:09:52;;;;;;;13.13;11.80;;;5.60;99.90;;;;;;4974154;28;20054;-77
2024/01/22 03:12:19;;;;;;;14.15;12.68;;;5.60;99.90;;;;;;4975037;28;20552;-75
2024/01/22 03:14:46;;;;;;;15.60;11.88;;;5.50;99.90;;;;;;4979673;28;20494;-77
2024/01/22 03:17:12;;;;;;;12.00;10.77;;;5.40;99.90;;;;;;4975882;28;20613;-77
2024/01/22 03:19:39;;;;;;;10.65;9.38;;;5.40;99.90;;;;;;4976082;28;20052;-76
2024/01/22 03:22:06;;;;;;;12.68;11.57;;;5.50;99.90;;;;;;4976375;28;20045;-76
2024/01/22 03:24:33;;;;;;;14.80;13.25;;;5.50;99.90;;;;;;4981798;28;20054;-77
2024/01/22 03:26:59;;;;;;;15.90;13.40;;;5.40;99.90;;;;;;4964044;28;20050;-77
2024/01/22 03:29:26;;;;;;;13.15;11.77;;;5.30;99.90;;;;;;4964773;28;20062;-76
2024/01/22 03:31:53;;;;;;;14.05;12.23;;;5.20;99.90;;;;;;4967933;28;20371;-76
2024/01/22 03:34:20;;;;;;;14.82;10.65;;;5.30;99.90;;;;;;4975519;28;20050;-76
2024/01/22 03:36:47;;;;;;;10.70;9.80;;;5.40;99.90;;;;;;4985371;28;20570;-75
2024/01/22 03:39:14;;;;;;;11.63;9.55;;;5.80;99.90;;;;;;4982545;28;20113;-74
2024/01/22 03:41:42;;;;;;;10.80;10.07;;;6.00;99.90;;;;;;4978974;28;20145;-76
2024/01/22 03:44:08;;;;;;;12.35;11.27;;;6.40;99.90;;;;;;4969996;28;20110;-75
2024/01/22 03:46:35;;;;;;;12.45;11.52;;;6.80;99.90;;;;;;4956565;28;20062;-75
2024/01/22 03:49:02;;;;;;;12.00;11.10;;;6.80;99.90;;;;;;4957369;28;20080;-75
2024/01/22 03:51:29;;;;;;;12.13;11.52;;;6.80;99.90;;;;;;4964667;28;20137;-75
2024/01/22 03:53:56;;;;;;;11.93;11.43;;;7.20;99.90;;;;;;4973439;28;20173;-75
2024/01/22 03:56:23;;;;;;;13.13;12.32;;;7.50;99.90;;;;;;4962271;28;20702;-75
2024/01/22 03:58:50;;;;;;;12.43;11.80;;;7.70;99.90;;;;;;4957323;28;20054;-75
2024/01/22 04:01:23;;;;;;;12.57;11.98;;;7.90;99.90;;;;;;4958752;28;20049;-75
2024/01/22 04:03:51;;;;;;;14.52;13.43;;;7.90;99.90;;;;;;4976365;28;20057;-75
2024/01/22 04:06:18;;;;;;;15.02;14.13;;;8.10;99.90;;;;;;4963437;28;20050;-76
2024/01/22 04:08:45;;;;;;;13.73;12.90;;;8.10;99.90;;;;;;4963266;28;20783;-76
2024/01/22 04:11:12;;;;;;;13.60;12.73;;;8.10;99.90;;;;;;4977472;28;20214;-77
2024/01/22 04:13:42;;;;;;;14.45;13.60;;;8.10;99.90;;;;;;4969838;28;20058;-76
2024/01/22 04:16:13;;;;;;;14.63;13.60;;;8.00;99.90;;;;;;4972717;28;20052;-77
2024/01/22 04:18:41;;;;;;;13.90;13.20;;;8.00;99.90;;;;;;4989273;28;20058;-76
2024/01/22 04:21:09;;;;;;;14.32;13.50;;;8.10;99.90;;;;;;4957659;28;20130;-76
2024/01/22 04:23:36;;;;;;;13.57;12.98;;;8.10;99.90;;;;;;4983941;28;20054;-76
2024/01/22 04:26:04;;;;;;;14.60;13.60;;;8.10;99.90;;;;;;4965805;28;20149;-76
2024/01/22 04:28:31;;;;;;;14.52;13.63;;;8.10;99.90;;;;;;4953293;28;20086;-77
2024/01/22 04:30:58;;;;;;;13.98;13.27;;;8.10;99.90;;;;;;4945668;28;20168;-77
2024/01/22 04:33:25;;;;;;;14.25;13.43;;;8.00;99.90;;;;;;4965919;28;20097;-75
2024/01/22 04:35:52;;;;;;;13.75;13.13;;;8.20;99.90;;;;;;4962385;28;20052;-77
2024/01/22 04:38:19;;;;;;;14.25;13.50;;;8.20;99.90;;;;;;4963306;28;20073;-77
2024/01/22 04:40:45;;;;;;;14.57;13.73;;;8.30;99.90;;;;;;4968392;28;20050;-78
2024/01/22 04:43:12;;;;;;;15.32;14.07;;;8.30;99.90;;;;;;4971044;28;20053;-77
2024/01/22 04:45:39;;;;;;;14.65;13.75;;;8.20;99.90;;;;;;4961834;28;20053;-76
2024/01/22 04:48:06;;;;;;;14.10;13.30;;;8.30;99.90;;;;;;4974377;28;20105;-76
2024/01/22 04:50:33;;;;;;;14.57;13.68;;;8.20;99.90;;;;;;4976776;28;20054;-76
2024/01/22 04:53:00;;;;;;;14.38;13.73;;;8.30;99.90;;;;;;4973469;28;20558;-74
2024/01/22 04:55:27;;;;;;;14.50;13.50;;;8.10;99.90;;;;;;4967486;28;20038;-75
2024/01/22 04:58:00;;;;;;;13.43;12.75;;;8.10;99.90;;;;;;4954061;28;20549;-76
2024/01/22 05:00:26;;;;;;;13.43;12.77;;;8.20;99.90;;;;;;4955572;28;20485;-76
2024/01/22 05:02:54;;;;;;;13.45;12.55;;;8.10;99.90;;;;;;4973438;28;20754;-77
2024/01/22 05:05:23;;;;;;;12.07;11.27;;;8.10;99.90;;;;;;4952175;28;20053;-77
2024/01/22 05:07:50;;;;;;;11.85;11.00;;;8.20;99.90;;;;;;4970100;28;20054;-77
2024/01/22 05:10:17;;;;;;;11.02;10.43;;;7.90;99.90;;;;;;4972263;28;20137;-77
2024/01/22 05:12:43;;;;;;;11.25;10.63;;;7.90;99.90;;;;;;4963088;28;20051;-76
2024/01/22 05:15:12;;;;;;;14.00;12.75;;;8.10;99.90;;;;;;4954564;28;20756;-77
2024/01/22 05:17:40;;;;;;;11.90;11.27;;;8.00;99.90;;;;;;4934161;28;20051;-78
2024/01/22 05:20:08;;;;;;;10.65;10.05;;;8.10;99.90;;;;;;4957692;28;20651;-77
2024/01/22 05:22:35;;;;;;;9.80;9.32;;;8.10;99.90;;;;;;4974228;28;20656;-79
2024/01/22 05:25:03;;;;;;;9.15;8.45;;;8.00;99.90;;;;;;4972777;28;20477;-78
2024/01/22 05:27:30;;;;;;;8.27;7.88;;;8.00;99.90;;;;;;4945613;28;20090;-77
2024/01/22 05:29:57;;;;;;;7.18;6.85;;;7.90;99.90;;;;;;4960211;28;20050;-79
2024/01/22 05:32:24;;;;;;;6.30;5.90;;;7.80;99.90;;;;;;4973462;28;20043;-77
2024/01/22 05:34:51;;;;;;;6.60;6.10;;;7.70;99.90;;;;;;4977603;28;20148;-80
2024/01/22 05:37:17;;;;;;;4.93;4.43;;;7.60;99.90;;;;;;4980580;28;20070;-80
2024/01/22 05:39:44;;;;;;;4.40;4.10;;;7.50;99.90;;;;;;4974870;28;20070;-80
2024/01/22 05:42:11;;;;;;;5.00;4.55;;;7.50;99.90;;;;;;4981441;28;20050;-81
2024/01/22 05:44:38;;;;;;;4.60;3.88;;;7.50;99.90;;;;;;4985662;28;20556;-79
2024/01/22 05:47:05;;;;;;;4.10;3.38;;;7.30;99.90;;;;;;4953538;28;20063;-80
2024/01/22 05:49:32;;;;;;;3.78;3.58;;;7.40;99.90;;;;;;4956036;28;22069;-79
2024/01/22 05:51:59;;;;;;;4.20;3.90;;;7.50;99.90;;;;;;4958855;28;20606;-81
2024/01/22 05:54:27;;;;;;;3.33;3.13;;;7.50;99.90;;;;;;4972845;28;20100;-79
2024/01/22 05:56:53;;;;;;;3.30;3.00;;;7.30;99.90;;;;;;4975882;28;20647;-81
2024/01/22 05:59:20;;;;;;;4.18;3.42;;;7.30;99.90;;;;;;4983254;28;20061;-79
2024/01/22 06:01:47;;;;;;;4.00;3.70;;;7.30;99.90;;;;;;4987350;28;20054;-81
2024/01/22 06:04:15;;;;;;;3.90;3.70;;;7.50;99.90;;;;;;5005108;28;20109;-79
2024/01/22 06:06:42;;;;;;;5.68;4.45;;;7.70;99.90;;;;;;4975857;28;20050;-81
2024/01/22 06:09:09;;;;;;;17.65;5.32;;;7.70;99.90;;;;;;4964790;28;20383;-81
2024/01/22 06:11:36;;;;;;;4.30;4.10;;;7.70;99.90;;;;;;4964016;28;20614;-80
2024/01/22 06:14:04;;;;;;;4.75;4.55;;;7.70;99.90;;;;;;4986041;28;20791;-81
2024/01/22 06:16:30;;;;;;;6.07;5.72;;;7.90;99.90;;;;;;4964874;28;20581;-80
2024/01/22 06:18:58;;;;;;;6.55;6.15;;;8.00;99.90;;;;;;4960988;28;20050;-80
2024/01/22 06:21:26;;;;;;;5.95;5.68;;;8.00;99.90;;;;;;4969581;28;20037;-78
2024/01/22 06:23:53;;;;;;;7.38;6.93;;;7.90;99.90;;;;;;4971412;28;20514;-79
2024/01/22 06:26:22;;;;;;;8.05;7.55;;;7.80;99.90;;;;;;4974914;28;20066;-78
2024/01/22 06:28:49;;;;;;;8.20;7.50;;;7.90;99.90;;;;;;4975002;28;20054;-79
2024/01/22 06:31:16;;;;;;;7.18;6.78;;;7.90;99.90;;;;;;4965641;28;20176;-77
2024/01/22 06:33:42;;;;;;;6.50;6.30;;;7.90;99.90;;;;;;4972004;28;20039;-79
2024/01/22 06:36:10;;;;;;;6.13;5.88;;;7.90;99.90;;;;;;4966205;28;20742;-78
2024/01/22 06:38:39;;;;;;;6.10;5.90;;;7.90;99.90;;;;;;4953083;28;20050;-78
2024/01/22 06:41:12;;;;;;;9.57;8.90;;;8.10;99.90;;;;;;4976585;28;20038;-77
2024/01/22 06:43:39;;;;;;;10.50;9.82;;;8.40;99.90;;;;;;4970276;28;20050;-76
2024/01/22 06:46:06;;;;;;;9.15;8.65;;;8.30;99.90;;;;;;4959643;28;20313;-78
2024/01/22 06:48:33;;;;;;;10.10;9.48;;;8.30;99.90;;;;;;4939161;28;20647;-78
2024/01/22 06:51:01;;;;;;;9.40;9.00;;;8.30;99.90;;;;;;4971128;28;20065;-77
2024/01/22 06:53:28;;;;;;;9.90;9.50;;;8.30;99.90;;;;;;4972304;28;20540;-77
2024/01/22 06:55:55;;;;;;;10.93;10.13;;;8.30;99.90;;;;;;5006631;28;20046;-75
2024/01/22 06:58:22;;;;;;;13.88;12.70;;;8.40;99.90;;;;;;4993795;28;20049;-76
2024/01/22 07:00:51;;;;;;;16.42;15.00;;;8.50;99.90;;;;;;4981851;28;20110;-76
2024/01/22 07:03:20;;;;;;;10.25;9.75;;;8.60;99.90;;;;;;4963858;28;20099;-76
2024/01/22 07:05:47;;;;;;;12.27;11.48;;;8.60;99.90;;;;;;4960925;28;20054;-76
2024/01/22 07:08:15;;;;;;;11.00;10.40;;;8.60;99.90;;;;;;4976379;28;20074;-77
2024/01/22 07:10:42;;;;;;;9.60;9.20;;;8.40;99.90;;;;;;4988504;28;20043;-76
2024/01/22 07:13:09;;;;;;;10.00;9.60;;;8.50;99.90;;;;;;4975412;28;20240;-76
2024/01/22 07:15:35;;;;;;;10.20;9.80;;;8.60;99.90;;;;;;4968967;28;20057;-76
2024/01/22 07:18:02;;;;;;;9.95;9.55;;;8.60;99.90;;;;;;4968880;28;20102;-76
2024/01/22 07:20:29;;;;;;;11.00;10.43;;;8.60;99.90;;;;;;4970882;28;20054;-77
2024/01/22 07:22:56;;;;;;;11.32;10.82;;;8.60;99.90;;;;;;4974280;28;20042;-77
2024/01/22 07:25:24;;;;;;;10.38;9.98;;;8.70;99.90;;;;;;4976768;28;20045;-77
2024/01/22 07:27:51;;;;;;;9.70;9.30;;;8.60;99.90;;;;;;4986832;28;20046;-76
2024/01/22 07:30:18;;;;;;;11.57;11.00;;;8.70;99.90;;;;;;4978978;28;20077;-75
2024/01/22 07:32:45;;;;;;;10.63;10.07;;;8.70;99.90;;;;;;4964397;28;20067;-77
2024/01/22 07:35:13;;;;;;;10.90;10.40;;;8.80;99.90;;;;;;4969394;28;20074;-76
2024/01/22 07:37:46;;;;;;;10.52;10.13;;;8.80;99.90;;;;;;4953994;28;20064;-76
2024/01/22 07:40:14;;;;;;;10.52;10.13;;;8.80;99.90;;;;;;4953687;28;20202;-76
2024/01/22 07:42:44;;;;;;;11.07;10.48;;;8.90;99.90;;;;;;4970768;28;20125;-75
2024/01/22 07:45:12;;;;;;;11.20;10.70;;;8.90;99.90;;;;;;4968385;28;20840;-77
2024/01/22 07:47:39;;;;;;;10.98;10.38;;;8.90;99.90;;;;;;4972568;28;20054;-76
2024/01/22 07:50:10;;;;;;;10.00;9.60;;;8.80;99.90;;;;;;4956766;28;20050;-76
2024/01/22 07:52:37;;;;;;;11.88;11.27;;;8.90;99.90;;;;;;4945661;28;20047;-76
2024/01/22 07:55:08;;;;;;;10.90;10.40;;;8.90;99.90;;;;;;4947714;28;20117;-75
2024/01/22 07:57:35;;;;;;;11.73;11.23;;;8.90;99.90;;;;;;4971286;28;20160;-75
2024/01/22 08:00:02;;;;;;;10.93;10.52;;;8.90;99.90;;;;;;4969807;28;20046;-77
2024/01/22 08:02:33;;;;;;;10.90;10.40;;;8.80;99.90;;;;;;4954317;28;20423;-76
2024/01/22 08:04:59;;;;;;;10.18;9.77;;;8.80;99.90;;;;;;4947063;28;20039;-76
2024/01/22 08:07:26;;;;;;;12.13;11.20;;;8.80;99.90;;;;;;4970199;28;20717;-76
2024/01/22 08:09:53;;;;;;;10.95;10.52;;;8.80;99.90;;;;;;4965939;28;20042;-77
2024/01/22 08:12:20;;;;;;;10.45;9.95;;;8.90;99.90;;;;;;4965689;28;20058;-75
2024/01/22 08:14:47;;;;;;;10.45;10.02;;;9.00;99.90;;;;;;4930639;28;20043;-77
2024/01/22 08:17:14;;;;;;;10.48;10.07;;;8.80;99.90;;;;;;4970289;28;20098;-76
2024/01/22 08:19:40;;;;;;;11.30;10.80;;;9.10;99.90;;;;;;4969581;28;21086;-75
2024/01/22 08:22:07;;;;;;;10.82;10.32;;;9.10;99.90;;;;;;4963400;28;20064;-76
2024/01/22 08:24:34;;;;;;;12.57;12.07;;;9.00;99.90;;;;;;4965775;28;20046;-76
2024/01/22 08:27:01;;;;;;;10.90;10.40;;;9.10;99.90;;;;;;4971711;28;20035;-78
2024/01/22 08:29:29;;;;;;;10.70;10.10;;;8.90;99.90;;;;;;4974956;28;20141;-77
2024/01/22 08:31:56;;;;;;;10.80;10.30;;;9.00;99.90;;;;;;4970899;28;20149;-76
2024/01/22 08:34:23;;;;;;;12.27;11.57;;;9.10;99.90;;;;;;4985929;28;20081;-78
2024/01/22 08:36:50;;;;;;;13.75;13.25;;;9.10;99.90;;;;;;4958846;28;20141;-78
2024/01/22 08:39:17;;;;;;;11.20;10.77;;;9.10;99.90;;;;;;4975837;28;20135;-77
2024/01/22 08:41:43;;;;;;;10.05;9.65;;;9.20;99.90;;;;;;4972971;28;20042;-78
2024/01/22 08:44:10;;;;;;;10.10;9.75;;;9.20;99.90;;;;;;4985170;28;20089;-78
2024/01/22 08:46:37;;;;;;;10.05;9.65;;;9.20;99.90;;;;;;4972144;28;20038;-78
2024/01/22 08:49:05;;;;;;;10.57;10.02;;;9.20;99.90;;;;;;4973544;28;20042;-79
2024/01/22 08:51:32;;;;;;;10.43;10.02;;;9.30;99.90;;;;;;4972520;28;20058;-78
2024/01/22 08:53:59;;;;;;;10.35;9.90;;;9.30;99.90;;;;;;4967510;28;20042;-77
2024/01/22 08:56:26;;;;;;;10.43;9.95;;;9.40;99.90;;;;;;4976860;28;20046;-77
2024/01/22 08:58:53;;;;;;;10.77;10.18;;;9.40;99.90;;;;;;4970450;28;20073;-78
2024/01/22 09:01:20;;;;;;;11.52;11.13;;;9.40;99.90;;;;;;4983856;28;20038;-75
2024/01/22 09:03:47;;;;;;;11.95;11.35;;;9.50;99.90;;;;;;4972458;28;20082;-74
2024/01/22 09:06:14;;;;;;;11.80;11.30;;;9.50;99.90;;;;;;4956301;28;20057;-74
2024/01/22 09:08:42;;;;;;;11.50;11.00;;;9.50;99.90;;;;;;4970229;28;20092;-76
2024/01/22 09:11:09;;;;;;;10.50;10.00;;;9.60;99.90;;;;;;4954349;28;20609;-77
2024/01/22 09:13:38;;;;;;;10.57;10.02;;;9.40;99.90;;;;;;4966803;28;20054;-77
2024/01/22 09:16:05;;;;;;;10.48;10.05;;;9.30;99.90;;;;;;4966966;28;20057;-77
2024/01/22 09:18:32;;;;;;;10.73;10.32;;;9.20;99.90;;;;;;4968130;28;20058;-77
2024/01/22 09:21:00;;;;;;;11.70;11.20;;;9.20;99.90;;;;;;4967061;28;20050;-77
2024/01/22 09:23:27;;;;;;;11.40;10.90;;;9.30;99.90;;;;;;4966556;28;20039;-77
2024/01/22 09:25:53;;;;;;;10.98;10.57;;;9.30;99.90;;;;;;4969292;28;20038;-77
2024/01/22 09:28:21;;;;;;;11.40;10.98;;;9.30;99.90;;;;;;4974330;28;20093;-76
2024/01/22 09:30:48;;;;;;;11.52;11.05;;;9.20;99.90;;;;;;4967197;28;20056;-74
2024/01/22 09:33:15;;;;;;;11.20;10.50;;;9.20;99.90;;;;;;4973571;28;20066;-75
2024/01/22 09:35:42;;;;;;;11.07;10.43;;;9.20;99.90;;;;;;4961257;28;20050;-75
2024/01/22 09:38:09;;;;;;;11.20;10.60;;;9.20;99.90;;;;;;4950249;28;20436;-75
2024/01/22 09:40:36;;;;;;;13.20;12.40;;;9.20;99.90;;;;;;4955771;28;20520;-75
2024/01/22 09:43:04;;;;;;;13.88;13.07;;;9.30;99.90;;;;;;4970279;28;20034;-76
2024/01/22 09:45:34;;;;;;;16.75;16.05;;;9.40;99.90;;;;;;4960430;28;20730;-77
2024/01/22 09:48:02;;;;;;;15.85;15.05;;;9.40;99.90;;;;;;4979178;28;20393;-76
2024/01/22 09:50:30;;;;;;;14.73;14.05;;;9.50;99.90;;;;;;4992503;28;20046;-76
2024/01/22 09:53:05;;;;;;;13.27;12.68;;;9.40;99.90;;;;;;4974858;28;20049;-76
2024/01/22 09:55:32;;;;;;;13.75;13.25;;;9.40;99.90;;;;;;4984727;28;20069;-77
2024/01/22 09:58:01;;;;;;;12.65;12.15;;;9.40;99.90;;;;;;4987012;28;20097;-77
2024/01/22 10:00:29;;;;;;;12.10;11.60;;;9.30;99.90;;;;;;4981041;28;20073;-75
2024/01/22 10:03:00;;;;;;;13.98;13.45;;;9.40;99.90;;;;;;4998357;28;20034;-77
2024/01/22 10:05:27;;;;;;;13.05;12.45;;;9.30;99.90;;;;;;4992625;28;20757;-74
2024/01/22 10:07:54;;;;;;;16.15;15.45;;;9.30;99.90;;;;;;4991971;28;20069;-77
2024/01/22 10:10:21;;;;;;;15.80;15.20;;;9.40;99.90;;;;;;4993765;28;20049;-76
2024/01/22 10:13:04;;;;;;;14.07;13.30;;;9.50;99.90;;;;;;4986933;28;20038;-75
2024/01/22 10:15:33;;;;;;;14.52;13.90;;;9.60;99.90;;;;;;4967894;28;20054;-75
2024/01/22 10:18:26;;;;;;;15.77;14.85;;;9.60;99.90;;;;;;4987054;28;20043;-78
2024/01/22 10:20:57;;;;;;;14.60;13.88;;;9.60;99.90;;;;;;4995077;28;20050;-77
2024/01/22 10:23:24;;;;;;;14.35;13.75;;;9.60;99.90;;;;;;4983069;28;20474;-76
2024/01/22 10:25:50;;;;;;;14.90;14.10;;;9.60;99.90;;;;;;4981618;28;20049;-74
2024/01/22 10:28:18;;;;;;;15.27;14.57;;;9.60;99.90;;;;;;4976208;28;20062;-75
2024/01/22 10:31:03;;;;;;;15.95;15.20;;;9.50;99.90;;;;;;4958217;28;20453;-74
2024/01/22 10:33:30;;;;;;;15.50;14.70;;;9.60;99.90;;;;;;4960862;28;20766;-75
2024/01/22 10:36:16;;;;;;;14.88;14.18;;;9.60;99.90;;;;;;4974168;28;20125;-75
2024/01/22 10:38:45;;;;;;;20.27;18.67;;;9.50;99.90;;;;;;4965102;28;20077;-77
2024/01/22 10:41:17;;;;;;;16.20;15.30;;;9.50;99.90;;;;;;4972371;28;20101;-74
2024/01/22 10:43:45;;;;;;;15.77;14.98;;;9.50;99.90;;;;;;4965310;28;20081;-75
2024/01/22 10:46:13;;;;;;;14.95;14.20;;;9.60;99.90;;;;;;4967570;28;20734;-76
2024/01/22 10:48:42;;;;;;;15.95;15.15;;;9.50;99.90;;;;;;4974364;28;20042;-76
2024/01/22 10:51:14;;;;;;;17.05;16.15;;;9.60;99.90;;;;;;4970288;28;20112;-76
2024/01/22 10:53:43;;;;;;;19.30;17.92;;;9.60;99.90;;;;;;4975444;28;20141;-75
2024/01/22 10:56:17;;;;;;;17.13;16.05;;;9.70;99.90;;;;;;4973676;28;20130;-76
2024/01/22 10:58:45;;;;;;;18.58;17.50;;;9.80;99.90;;;;;;4974404;28;20133;-76
2024/01/22 11:01:18;;;;;;;17.75;16.65;;;9.80;99.90;;;;;;4975451;28;20061;-76
2024/01/22 11:03:50;;;;;;;18.08;16.88;;;9.90;99.90;;;;;;4962687;28;20186;-75
2024/01/22 11:06:23;;;;;;;19.52;18.13;;;9.90;99.90;;;;;;4972338;28;20153;-75
2024/01/22 11:08:52;;;;;;;23.05;21.08;;;10.00;99.90;;;;;;4989835;28;20141;-76
2024/01/22 11:11:21;;;;;;;21.70;20.10;;;10.00;99.90;;;;;;4970420;28;20477;-76
2024/01/22 11:13:51;;;;;;;19.30;18.05;;;10.10;99.90;;;;;;4973461;28;20079;-75
2024/01/22 11:16:21;;;;;;;17.80;16.90;;;10.10;99.90;;;;;;4988554;28;20038;-77
2024/01/22 11:19:03;;;;;;;18.13;16.90;;;10.00;99.90;;;;;;4976486;28;20046;-76
2024/01/22 11:21:34;;;;;;;17.50;16.70;;;10.10;99.90;;;;;;4973977;28;20109;-75
2024/01/22 11:24:25;;;;;;;18.60;17.10;;;10.10;99.90;;;;;;4969932;28;20134;-75
2024/01/22 11:26:52;;;;;;;18.15;16.63;;;10.10;99.90;;;;;;4974467;28;20421;-76
2024/01/22 11:29:25;;;;;;;18.75;17.35;;;10.00;99.90;;;;;;4977272;28;21091;-77
2024/01/22 11:31:52;;;;;;;18.20;17.20;;;10.10;99.90;;;;;;4970185;28;20053;-76
2024/01/22 11:34:42;;;;;;;19.05;18.00;;;10.10;99.90;;;;;;4971594;28;20062;-76
2024/01/22 11:37:33;;;;;;;17.13;16.13;;;10.10;99.90;;;;;;4950470;28;22274;-76
2024/01/22 11:40:06;;;;;;;19.33;18.23;;;10.10;99.90;;;;;;4963642;28;20129;-75
2024/01/22 11:42:34;;;;;;;19.67;18.48;;;10.10;99.90;;;;;;4971252;28;20054;-75
2024/01/22 11:45:13;;;;;;;20.35;18.83;;;10.20;99.90;;;;;;4952035;28;20128;-76
2024/01/22 11:47:44;;;;;;;19.40;17.90;;;10.10;99.90;;;;;;4971125;28;20053;-76
2024/01/22 11:50:13;;;;;;;21.50;19.73;;;10.10;99.90;;;;;;4968238;28;20050;-75
2024/01/22 11:52:43;;;;;;;18.52;17.20;;;10.20;99.90;;;;;;4964370;28;20050;-75
2024/01/22 11:55:10;;;;;;;19.27;18.08;;;10.20;99.90;;;;;;4968514;28;20136;-74
2024/01/22 11:57:37;;;;;;;19.83;18.40;;;10.30;99.90;;;;;;4972243;28;20112;-77
2024/01/22 12:00:11;;;;;;;21.55;19.75;;;10.30;99.90;;;;;;4969693;28;20708;-77
2024/01/22 12:02:41;;;;;;;20.10;18.70;;;10.30;99.90;;;;;;4968688;28;20047;-74
2024/01/22 12:05:12;;;;;;;19.23;18.10;;;10.30;99.90;;;;;;4966448;28;20101;-75
2024/01/22 12:07:48;;;;;;;19.90;18.73;;;10.30;99.90;;;;;;4976083;28;20060;-76
2024/01/22 12:10:23;;;;;;;19.95;18.92;;;10.30;99.90;;;;;;4967396;28;20708;-76
2024/01/22 12:13:04;;;;;;;20.42;19.17;;;10.40;99.90;;;;;;4963722;28;20062;-75
2024/01/22 12:15:32;;;;;;;20.75;19.55;;;10.40;99.90;;;;;;4957313;28;20077;-76
2024/01/22 12:18:02;;;;;;;20.80;19.70;;;10.40;99.90;;;;;;4939473;28;20046;-75
2024/01/22 12:20:30;;;;;;;20.77;19.60;;;10.40;99.90;;;;;;4962480;28;20754;-76
2024/01/22 12:23:03;;;;;;;20.73;19.63;;;10.50;99.90;;;;;;4972246;28;20042;-75
2024/01/22 12:25:38;;;;;;;19.80;18.58;;;10.50;99.90;;;;;;4969860;28;20064;-75
2024/01/22 12:28:14;;;;;;;19.73;18.48;;;10.40;99.90;;;;;;4949948;28;20591;-75
2024/01/22 12:30:44;;;;;;;19.85;18.52;;;10.40;99.90;;;;;;4963085;28;20104;-76
2024/01/22 12:33:25;;;;;;;19.45;18.35;;;10.40;99.90;;;;;;4969459;28;20144;-76
2024/01/22 12:36:07;;;;;;;20.42;19.13;;;10.50;99.90;;;;;;4975493;28;20069;-75
2024/01/22 12:38:54;;;;;;;19.13;18.02;;;10.50;99.90;;;;;;4972491;28;20046;-76
2024/01/22 12:41:22;;;;;;;21.33;19.83;;;10.60;99.90;;;;;;4968680;28;20066;-75
2024/01/22 12:43:55;;;;;;;21.13;20.00;;;10.60;99.90;;;;;;4963026;28;20050;-77